createdAt,value
2023-04-18T00:02:26.213Z,81.97
2023-04-18T00:04:54.561Z,82.06
2023-04-18T00:07:22.518Z,81.99
2023-04-18T00:09:50.304Z,82.19
2023-04-18T00:12:18.889Z,82.22
2023-04-18T00:14:46.737Z,82.00
2023-04-18T00:17:14.661Z,82.21
2023-04-18T00:19:43.569Z,82.18
2023-04-18T00:22:11.559Z,82.07
2023-04-18T00:24:40.529Z,82.26
2023-04-18T00:27:08.662Z,82.11
2023-04-18T00:29:36.725Z,82.51
2023-04-18T00:32:04.659Z,82.21
2023-04-18T00:34:32.593Z,82.18
2023-04-18T00:37:00.435Z,82.23
2023-04-18T00:39:28.453Z,82.38
2023-04-18T00:41:56.524Z,82.33
2023-04-18T00:44:24.430Z,82.61
2023-04-18T00:46:52.284Z,82.39
2023-04-18T00:49:21.548Z,82.59
2023-04-18T00:51:50.880Z,82.68
2023-04-18T00:54:19.373Z,82.55
2023-04-18T00:56:48.740Z,82.63
2023-04-18T00:59:16.706Z,82.65
2023-04-18T01:01:45.343Z,82.77
2023-04-18T01:04:13.955Z,82.66
2023-04-18T01:06:45.759Z,82.61
2023-04-18T01:09:14.309Z,82.67
2023-04-18T01:11:42.143Z,82.81
2023-04-18T01:14:10.902Z,82.90
2023-04-18T01:16:40.261Z,83.01
2023-04-18T01:19:08.643Z,82.88
2023-04-18T01:21:37.514Z,82.76
2023-04-18T01:24:15.290Z,82.89
2023-04-18T01:26:47.733Z,82.99
2023-04-18T01:29:16.455Z,83.03
2023-04-18T01:31:44.459Z,82.97
2023-04-18T01:34:12.703Z,82.88
2023-04-18T01:36:42.638Z,83.09
2023-04-18T01:39:13.521Z,83.11
2023-04-18T01:41:42.439Z,82.98
2023-04-18T01:44:11.326Z,83.09
2023-04-18T01:46:40.113Z,83.22
2023-04-18T01:49:09.505Z,83.19
2023-04-18T01:51:39.128Z,83.31
2023-04-18T01:54:07.133Z,83.33
2023-04-18T01:56:35.268Z,83.19
2023-04-18T01:59:03.628Z,83.31
2023-04-18T02:01:31.491Z,83.37
2023-04-18T02:04:00.120Z,83.30
2023-04-18T02:06:28.518Z,83.48
2023-04-18T02:08:56.375Z,83.41
2023-04-18T02:11:26.400Z,83.42
2023-04-18T02:13:54.284Z,83.28
2023-04-18T02:16:22.254Z,83.41
2023-04-18T02:18:52.896Z,83.38
2023-04-18T02:21:22.146Z,83.51
2023-04-18T02:23:51.095Z,83.52
2023-04-18T02:26:18.990Z,83.71
2023-04-18T02:28:47.007Z,83.57
2023-04-18T02:31:16.930Z,83.82
2023-04-18T02:33:47.964Z,83.73
2023-04-18T02:36:16.280Z,83.61
2023-04-18T02:38:45.424Z,83.56
2023-04-18T02:41:15.411Z,83.60
2023-04-18T02:43:43.423Z,83.64
2023-04-18T02:46:12.258Z,83.94
2023-04-18T02:48:40.375Z,84.03
2023-04-18T02:51:09.539Z,83.79
2023-04-18T02:53:38.285Z,83.78
2023-04-18T02:56:07.474Z,83.93
2023-04-18T02:58:55.238Z,83.73
2023-04-18T03:01:42.026Z,83.78
2023-04-18T03:04:13.721Z,83.91
2023-04-18T03:06:52.025Z,84.02
2023-04-18T03:09:19.859Z,84.01
2023-04-18T03:11:51.906Z,84.21
2023-04-18T03:14:22.303Z,84.09
2023-04-18T03:16:54.687Z,84.25
2023-04-18T03:19:26.297Z,84.18
2023-04-18T03:21:55.137Z,84.18
2023-04-18T03:24:23.637Z,84.30
2023-04-18T03:26:53.171Z,84.23
2023-04-18T03:29:22.747Z,84.27
2023-04-18T03:31:50.993Z,84.14
2023-04-18T03:34:19.024Z,84.07
2023-04-18T03:36:48.331Z,84.31
2023-04-18T03:39:16.478Z,84.36
2023-04-18T03:41:45.532Z,84.31
2023-04-18T03:44:14.329Z,84.39
2023-04-18T03:46:44.869Z,84.47
2023-04-18T03:49:13.466Z,84.57
2023-04-18T03:51:49.317Z,84.49
2023-04-18T03:54:17.850Z,84.60
2023-04-18T03:56:45.699Z,84.47
2023-04-18T03:59:15.478Z,84.39
2023-04-18T04:01:45.996Z,84.48
2023-04-18T04:04:15.810Z,84.60
2023-04-18T04:06:44.221Z,84.62
2023-04-18T04:09:12.128Z,84.61
2023-04-18T04:11:40.683Z,84.49
2023-04-18T04:14:10.442Z,84.71
2023-04-18T04:16:42.550Z,84.75
2023-04-18T04:19:11.265Z,84.77
2023-04-18T04:21:43.098Z,84.81
2023-04-18T04:24:15.310Z,84.87
2023-04-18T04:26:46.789Z,84.68
2023-04-18T04:29:19.107Z,84.69
2023-04-18T04:31:48.012Z,84.47
2023-04-18T04:34:22.202Z,84.43
2023-04-18T04:36:54.156Z,84.53
2023-04-18T04:39:22.889Z,84.53
2023-04-18T04:42:08.360Z,84.49
2023-04-18T04:44:43.218Z,84.54
2023-04-18T04:47:11.366Z,84.43
2023-04-18T04:49:39.694Z,84.42
2023-04-18T04:52:07.551Z,84.25
2023-04-18T04:54:35.607Z,84.30
2023-04-18T04:57:05.494Z,84.28
2023-04-18T04:59:33.456Z,84.18
2023-04-18T05:02:01.747Z,84.12
2023-04-18T05:04:30.262Z,84.01
2023-04-18T05:06:58.489Z,83.96
2023-04-18T05:09:26.402Z,83.99
2023-04-18T05:11:54.157Z,83.89
2023-04-18T05:14:22.916Z,83.84
2023-04-18T05:16:50.848Z,83.85
2023-04-18T05:19:18.729Z,83.67
2023-04-18T05:21:46.726Z,83.64
2023-04-18T05:24:14.658Z,83.17
2023-04-18T05:26:43.575Z,83.06
2023-04-18T05:29:11.538Z,83.09
2023-04-18T05:31:39.343Z,82.75
2023-04-18T05:34:07.168Z,82.33
2023-04-18T05:36:35.148Z,81.85
2023-04-18T05:39:03.518Z,81.77
2023-04-18T05:41:31.691Z,81.40
2023-04-18T05:44:05.342Z,80.91
2023-04-18T05:46:34.123Z,80.67
2023-04-18T05:49:02.687Z,80.25
2023-04-18T05:51:31.373Z,79.92
2023-04-18T05:53:59.592Z,79.96
2023-04-18T05:56:27.725Z,79.74
2023-04-18T05:58:56.008Z,79.64
2023-04-18T06:01:23.905Z,79.81
2023-04-18T06:03:51.889Z,79.47
2023-04-18T06:06:20.808Z,79.37
2023-04-18T06:08:49.011Z,79.36
2023-04-18T06:11:16.979Z,78.99
2023-04-18T06:13:44.807Z,78.99
2023-04-18T06:16:13.294Z,79.11
2023-04-18T06:18:41.167Z,79.34
2023-04-18T06:21:09.122Z,79.17
2023-04-18T06:23:38.695Z,79.04
2023-04-18T06:26:07.654Z,78.51
2023-04-18T06:28:36.214Z,78.34
2023-04-18T06:31:04.418Z,78.02
2023-04-18T06:33:33.386Z,77.99
2023-04-18T06:36:01.754Z,77.99
2023-04-18T06:38:29.725Z,77.99
2023-04-18T06:40:57.556Z,78.17
2023-04-18T06:43:25.627Z,77.78
2023-04-18T06:45:53.820Z,77.35
2023-04-18T06:48:21.772Z,77.05
2023-04-18T06:50:49.612Z,77.37
2023-04-18T06:53:17.439Z,77.14
2023-04-18T06:55:45.574Z,76.48
2023-04-18T06:58:16.200Z,76.35
2023-04-18T07:00:44.254Z,76.02
2023-04-18T07:03:13.642Z,75.75
2023-04-18T07:05:41.965Z,75.46
2023-04-18T07:08:09.806Z,74.67
2023-04-18T07:10:37.622Z,74.27
2023-04-18T07:13:05.355Z,73.63
2023-04-18T07:15:35.292Z,73.70
2023-04-18T07:18:03.384Z,73.45
2023-04-18T07:20:31.249Z,73.28
2023-04-18T07:22:59.175Z,72.95
2023-04-18T07:25:26.907Z,73.38
2023-04-18T07:37:04.715Z,73.59
2023-04-18T07:39:35.941Z,73.74
2023-04-18T07:42:04.775Z,74.00
2023-04-18T07:44:35.463Z,74.12
2023-04-18T07:47:03.726Z,74.31
2023-04-18T07:49:31.581Z,74.61
2023-04-18T07:51:59.409Z,74.73
2023-04-18T07:54:27.351Z,74.43
2023-04-18T07:56:55.139Z,74.34
2023-04-18T07:59:22.977Z,74.48
2023-04-18T08:01:51.071Z,74.33
2023-04-18T08:04:19.166Z,74.40
2023-04-18T08:06:47.098Z,74.43
2023-04-18T08:09:15.329Z,74.30
2023-04-18T08:11:43.450Z,74.17
2023-04-18T08:14:11.663Z,74.09
2023-04-18T08:16:39.850Z,73.78
2023-04-18T08:19:07.753Z,73.72
2023-04-18T08:21:35.747Z,73.86
2023-04-18T08:24:03.646Z,73.47
2023-04-18T08:26:31.467Z,73.17
2023-04-18T08:28:59.474Z,72.92
2023-04-18T08:31:27.731Z,72.08
2023-04-18T08:33:55.621Z,71.95
2023-04-18T08:36:24.901Z,71.50
2023-04-18T08:38:52.659Z,71.10
2023-04-18T08:41:23.294Z,70.92
2023-04-18T08:43:51.129Z,70.98
2023-04-18T08:46:19.103Z,70.15
2023-04-18T08:48:50.070Z,69.85
2023-04-18T08:51:17.963Z,69.61
2023-04-18T08:53:45.987Z,69.98
2023-04-18T08:56:16.366Z,69.00
2023-04-18T08:58:45.199Z,68.38
2023-04-18T09:01:13.631Z,67.45
2023-04-18T09:03:43.253Z,66.55
2023-04-18T09:06:19.082Z,66.40
2023-04-18T09:08:58.875Z,65.92
2023-04-18T09:11:29.614Z,65.50
2023-04-18T09:13:59.126Z,65.09
2023-04-18T09:16:27.763Z,64.39
2023-04-18T09:19:13.115Z,64.16
2023-04-18T09:21:47.285Z,63.76
2023-04-18T09:24:24.867Z,64.26
2023-04-18T09:26:54.139Z,64.21
2023-04-18T09:29:41.145Z,63.47
2023-04-18T09:32:09.382Z,62.05
2023-04-18T09:34:42.573Z,62.62
2023-04-18T09:37:12.047Z,61.45
2023-04-18T09:39:44.577Z,60.94
2023-04-18T09:42:14.039Z,59.87
2023-04-18T09:45:03.695Z,59.91
2023-04-18T09:47:35.250Z,59.91
2023-04-18T09:50:08.936Z,59.43
2023-04-18T09:52:39.378Z,58.90
2023-04-18T09:55:10.359Z,58.74
2023-04-18T09:57:42.083Z,59.13
2023-04-18T10:00:21.483Z,58.99
2023-04-18T10:02:50.666Z,59.22
2023-04-18T10:05:21.389Z,58.27
2023-04-18T10:07:50.905Z,59.04
2023-04-18T10:10:19.624Z,59.34
2023-04-18T10:12:50.706Z,58.90
2023-04-18T10:15:21.213Z,58.90
2023-04-18T10:20:28.856Z,58.18
2023-04-18T10:22:58.306Z,58.21
2023-04-18T10:25:35.268Z,57.78
2023-04-18T10:28:04.976Z,57.83
2023-04-18T10:30:41.862Z,57.62
2023-04-18T10:36:21.492Z,57.31
2023-04-18T10:39:03.165Z,57.11
2023-04-18T10:41:33.190Z,56.07
2023-04-18T10:44:08.536Z,55.18
2023-04-18T10:46:57.802Z,54.68
2023-04-18T10:49:30.339Z,54.98
2023-04-18T10:52:02.636Z,55.01
2023-04-18T10:54:58.382Z,55.12
2023-04-18T10:57:47.885Z,55.43
2023-04-18T11:00:18.143Z,54.63
2023-04-18T11:02:56.313Z,54.76
2023-04-18T11:05:28.825Z,55.00
2023-04-18T11:07:56.649Z,54.85
2023-04-18T11:10:26.875Z,54.57
2023-04-18T11:12:55.617Z,55.15
2023-04-18T11:15:25.888Z,54.70
2023-04-18T11:18:07.020Z,54.51
2023-04-18T11:20:39.984Z,54.61
2023-04-18T11:23:23.904Z,52.79
2023-04-18T11:25:54.481Z,51.44
2023-04-18T11:28:25.077Z,51.16
2023-04-18T11:30:58.245Z,50.50
2023-04-18T11:33:28.813Z,49.52
2023-04-18T11:35:58.771Z,49.78
2023-04-18T11:38:30.953Z,49.08
2023-04-18T11:40:58.992Z,48.80
2023-04-18T11:43:26.851Z,49.08
2023-04-18T11:45:56.601Z,49.57
2023-04-18T11:48:33.788Z,49.76
2023-04-18T11:51:01.634Z,49.80
2023-04-18T11:53:34.691Z,48.25
2023-04-18T11:56:03.991Z,47.58
2023-04-18T11:58:36.436Z,47.91
2023-04-18T12:01:18.263Z,47.30
2023-04-18T12:04:07.150Z,47.25
2023-04-18T12:06:52.822Z,47.31
2023-04-18T12:09:22.416Z,47.62
2023-04-18T12:12:01.614Z,47.96
2023-04-18T12:14:30.302Z,48.24
2023-04-18T12:16:58.191Z,48.17
2023-04-18T12:19:28.228Z,48.42
2023-04-18T12:22:00.380Z,48.55
2023-04-18T12:24:29.319Z,48.68
2023-04-18T12:26:58.183Z,48.56
2023-04-18T12:29:28.564Z,48.56
2023-04-18T12:31:56.733Z,48.06
2023-04-18T12:34:24.887Z,48.26
2023-04-18T12:36:53.769Z,48.51
2023-04-18T12:39:22.601Z,48.96
2023-04-18T12:41:50.555Z,49.05
2023-04-18T12:44:18.562Z,49.48
2023-04-18T12:46:47.674Z,50.03
2023-04-18T12:49:15.610Z,50.13
2023-04-18T12:51:43.688Z,50.40
2023-04-18T12:54:11.840Z,50.94
2023-04-18T12:56:39.902Z,50.58
2023-04-18T12:59:08.630Z,50.49
2023-04-18T13:01:36.819Z,50.31
2023-04-18T13:04:12.225Z,50.25
2023-04-18T13:06:58.525Z,50.07
2023-04-18T13:09:27.605Z,50.18
2023-04-18T13:11:55.819Z,50.03
2023-04-18T13:14:24.780Z,49.52
2023-04-18T13:16:53.713Z,49.73
2023-04-18T13:19:21.656Z,49.86
2023-04-18T13:21:50.030Z,49.63
2023-04-18T13:24:20.657Z,49.40
2023-04-18T13:26:51.592Z,48.95
2023-04-18T13:29:23.081Z,49.02
2023-04-18T13:31:54.788Z,48.95
2023-04-18T13:34:25.679Z,48.69
2023-04-18T13:36:59.034Z,48.48
2023-04-18T13:39:32.710Z,48.74
2023-04-18T13:42:05.759Z,48.64
2023-04-18T13:44:37.696Z,48.92
2023-04-18T13:47:09.162Z,48.26
2023-04-18T13:49:39.719Z,48.17
2023-04-18T13:52:10.698Z,47.91
2023-04-18T13:54:42.733Z,47.69
2023-04-18T13:57:13.727Z,47.82
2023-04-18T13:59:44.144Z,48.15
2023-04-18T14:02:15.800Z,48.43
2023-04-18T14:04:46.840Z,47.95
2023-04-18T14:07:17.700Z,48.04
2023-04-18T14:09:50.472Z,48.24
2023-04-18T14:12:50.739Z,48.32
2023-04-18T14:18:55.730Z,47.67
2023-04-18T14:21:27.059Z,47.65
2023-04-18T14:31:29.069Z,46.86
2023-04-18T14:33:56.914Z,46.93
2023-04-18T14:36:25.088Z,47.10
2023-04-18T14:38:54.206Z,46.85
2023-04-18T14:41:22.356Z,47.23
2023-04-18T14:43:50.140Z,47.25
2023-04-18T14:46:18.046Z,47.60
2023-04-18T14:48:48.879Z,47.53
2023-04-18T14:51:17.060Z,47.59
2023-04-18T14:53:45.071Z,47.46
2023-04-18T14:56:12.884Z,47.41
2023-04-18T14:58:40.758Z,47.59
2023-04-18T15:01:08.780Z,47.60
2023-04-18T15:03:36.663Z,47.52
2023-04-18T15:06:04.762Z,47.51
2023-04-18T15:08:32.944Z,47.47
2023-04-18T15:11:01.430Z,47.62
2023-04-18T15:13:29.284Z,47.36
2023-04-18T15:15:57.145Z,47.58
2023-04-18T15:18:25.012Z,47.78
2023-04-18T15:20:53.854Z,47.97
2023-04-18T15:23:21.702Z,47.90
2023-04-18T15:25:49.487Z,48.22
2023-04-18T15:28:18.692Z,48.48
2023-04-18T15:30:46.769Z,48.74
2023-04-18T15:33:15.659Z,48.75
2023-04-18T15:35:43.461Z,48.86
2023-04-18T15:38:11.981Z,48.98
2023-04-18T15:40:39.791Z,49.28
2023-04-18T15:43:07.736Z,49.24
2023-04-18T15:45:35.850Z,49.33
2023-04-18T15:48:03.837Z,49.44
2023-04-18T15:50:33.355Z,49.34
2023-04-18T15:53:02.466Z,49.33
2023-04-18T15:55:30.214Z,49.31
2023-04-18T15:57:58.055Z,49.44
2023-04-18T16:00:26.414Z,49.30
2023-04-18T16:02:54.316Z,49.05
2023-04-18T16:05:22.217Z,49.16
2023-04-18T16:07:50.108Z,49.48
2023-04-18T16:10:17.932Z,49.56
2023-04-18T16:12:45.989Z,49.47
2023-04-18T16:15:13.956Z,49.48
2023-04-18T16:17:41.791Z,49.63
2023-04-18T16:20:10.108Z,49.42
2023-04-18T16:22:38.120Z,49.66
2023-04-18T16:25:06.750Z,49.70
2023-04-18T16:27:34.612Z,49.94
2023-04-18T16:30:03.368Z,49.96
2023-04-18T16:32:31.329Z,50.19
2023-04-18T16:34:59.294Z,50.12
2023-04-18T16:42:03.555Z,50.55
2023-04-18T16:44:31.402Z,50.54
2023-04-18T16:46:59.348Z,50.63
2023-04-18T16:49:27.373Z,50.67
2023-04-18T16:51:55.138Z,50.68
2023-04-18T16:54:22.950Z,50.72
2023-04-18T16:56:50.705Z,50.91
2023-04-18T16:59:18.594Z,50.95
2023-04-18T17:06:22.797Z,51.04
2023-04-18T17:08:50.995Z,51.01
2023-04-18T17:11:20.125Z,51.18
2023-04-18T17:13:48.151Z,51.42
2023-04-18T17:16:15.962Z,51.49
2023-04-18T17:18:43.826Z,51.47
2023-04-18T17:21:12.577Z,51.72
2023-04-18T17:23:42.514Z,51.78
2023-04-18T17:26:10.546Z,51.99
2023-04-18T17:28:38.409Z,52.17
2023-04-18T17:31:06.663Z,52.22
2023-04-18T17:33:34.634Z,52.40
2023-04-18T17:36:04.953Z,52.52
2023-04-18T17:38:35.078Z,52.55
2023-04-18T17:41:04.822Z,52.71
2023-04-18T17:43:32.872Z,52.96
2023-04-18T17:46:02.464Z,53.17
2023-04-18T17:48:30.446Z,53.44
2023-04-18T17:50:58.244Z,53.68
2023-04-18T17:53:26.895Z,53.95
2023-04-18T17:55:58.863Z,54.31
2023-04-18T17:58:27.159Z,54.30
2023-04-18T18:00:55.273Z,54.71
2023-04-18T18:03:23.267Z,55.21
2023-04-18T18:05:51.883Z,55.46
2023-04-18T18:08:20.036Z,55.84
2023-04-18T18:10:48.011Z,56.09
2023-04-18T18:13:16.056Z,56.51
2023-04-18T18:15:44.061Z,56.56
2023-04-18T18:18:12.256Z,56.88
2023-04-18T18:20:44.052Z,57.16
2023-04-18T18:23:12.106Z,57.36
2023-04-18T18:25:40.367Z,57.23
2023-04-18T18:28:08.277Z,57.51
2023-04-18T18:30:38.029Z,57.85
2023-04-18T18:33:06.147Z,58.11
2023-04-18T18:35:35.075Z,58.37
2023-04-18T18:38:02.935Z,58.58
2023-04-18T18:40:30.820Z,58.66
2023-04-18T18:42:59.486Z,58.66
2023-04-18T18:45:27.562Z,59.15
2023-04-18T18:47:55.516Z,59.18
2023-04-18T18:50:23.366Z,59.51
2023-04-18T18:52:51.419Z,59.73
2023-04-18T18:55:19.210Z,59.85
2023-04-18T18:57:47.460Z,60.26
2023-04-18T19:00:15.497Z,60.30
2023-04-18T19:02:45.544Z,60.32
2023-04-18T19:09:47.194Z,59.75
2023-04-18T19:12:15.923Z,59.60
2023-04-18T19:14:44.818Z,59.50
2023-04-18T19:17:13.063Z,59.48
2023-04-18T19:33:41.240Z,58.81
2023-04-18T19:36:10.059Z,58.76
2023-04-18T19:38:38.358Z,58.61
2023-04-18T19:41:06.230Z,58.39
2023-04-18T19:43:34.753Z,58.40
2023-04-18T19:46:03.229Z,58.26
2023-04-18T19:53:21.439Z,58.21
2023-04-18T19:55:49.975Z,57.88
2023-04-18T19:58:39.667Z,57.84
2023-04-18T20:01:09.945Z,57.50
2023-04-18T20:08:27.622Z,57.60
2023-04-18T20:10:56.573Z,57.49
2023-04-18T20:13:24.935Z,57.38
2023-04-18T20:15:53.426Z,57.28
2023-04-18T20:18:21.668Z,57.08
2023-04-18T20:20:50.123Z,56.95
2023-04-18T20:23:20.224Z,56.91
2023-04-18T20:25:50.964Z,56.55
2023-04-18T20:28:22.433Z,56.53
2023-04-18T20:30:50.503Z,56.41
2023-04-18T20:33:18.799Z,56.38
2023-04-18T20:35:47.111Z,56.36
2023-04-18T20:42:50.168Z,56.42
2023-04-18T20:45:18.054Z,56.28
2023-04-18T20:47:46.689Z,56.34
2023-04-18T20:54:50.014Z,56.28
2023-04-18T20:57:19.366Z,56.32
2023-04-18T21:04:22.186Z,56.62
2023-04-18T21:06:50.783Z,56.66
2023-04-18T21:09:18.854Z,56.63
2023-04-18T21:11:48.166Z,56.71
2023-04-18T21:14:17.350Z,56.73
2023-04-18T21:16:45.523Z,56.93
2023-04-18T21:19:14.046Z,56.95
2023-04-18T21:21:41.960Z,56.88
2023-04-18T21:24:12.201Z,56.94
2023-04-18T21:26:44.105Z,57.06
2023-04-18T21:29:16.543Z,57.23
2023-04-18T21:36:20.364Z,57.39
2023-04-18T21:43:24.059Z,57.51
2023-04-18T21:45:56.132Z,57.74
2023-04-18T21:48:28.086Z,57.82
2023-04-18T21:50:58.462Z,57.60
2023-04-18T21:53:29.104Z,57.65
2023-04-18T21:56:00.839Z,57.78
2023-04-18T21:58:31.666Z,57.83
2023-04-18T22:01:03.164Z,57.86
2023-04-18T22:03:35.232Z,58.02
2023-04-18T22:06:07.137Z,57.83
2023-04-18T22:08:39.087Z,58.07
2023-04-18T22:11:12.167Z,58.22
2023-04-18T22:13:45.228Z,58.36
2023-04-18T22:16:16.261Z,58.47
2023-04-18T22:18:49.154Z,58.36
2023-04-18T22:21:20.104Z,58.66
2023-04-18T22:31:22.555Z,58.78
2023-04-18T22:33:50.669Z,58.96
2023-04-18T22:36:18.496Z,59.35
2023-04-18T22:38:46.340Z,59.51
2023-04-18T22:41:14.240Z,59.84
2023-04-18T22:43:42.093Z,60.17
2023-04-18T22:46:10.045Z,60.59
2023-04-18T22:48:38.570Z,60.49
2023-04-18T22:51:06.934Z,60.71
2023-04-18T22:53:34.748Z,60.81
2023-04-18T22:56:02.781Z,60.68
2023-04-18T22:58:31.544Z,60.70
2023-04-18T23:00:59.783Z,60.88
2023-04-18T23:03:27.844Z,61.14
2023-04-18T23:05:56.112Z,61.00
2023-04-18T23:08:24.150Z,61.04
2023-04-18T23:10:51.927Z,61.04
2023-04-18T23:13:19.754Z,61.38
2023-04-18T23:15:47.658Z,61.43
2023-04-18T23:18:15.824Z,61.46
2023-04-18T23:20:43.656Z,61.45
2023-04-18T23:23:11.492Z,61.44
2023-04-18T23:25:39.318Z,61.56
2023-04-18T23:28:07.773Z,61.68
2023-04-18T23:30:37.176Z,61.70
2023-04-18T23:33:06.092Z,61.69
2023-04-18T23:35:34.167Z,61.96
2023-04-18T23:38:02.067Z,62.09
2023-04-18T23:40:30.011Z,62.19
2023-04-18T23:42:57.820Z,62.34
2023-04-18T23:45:26.152Z,62.40
2023-04-18T23:47:54.233Z,62.36
2023-04-18T23:50:22.125Z,62.64
2023-04-18T23:52:50.080Z,62.32
2023-04-18T23:55:18.216Z,62.59
2023-04-18T23:57:46.196Z,62.71
